Time;durP1;ratioP1;P1;durP2;ratioP2;P2;SDS_P1;SDS_P2;PMS_P1;PMS_P2;Temp;Humidity;BMP_temperature;BMP_pressure;BME280_temperature;BME280_humidity;BME280_pressure;Samples;Min_cycle;Max_cycle;Signal;HPM_P1;HPM_P2
2024/02/07 00:01:00;;;;;;;7.78;1.25;;;4.50;99.90;;;;;;7372827;19;20023;-65
2024/02/07 00:03:27;;;;;;;9.77;1.45;;;4.60;99.90;;;;;;7370436;19;20117;-64
2024/02/07 00:05:54;;;;;;;10.07;1.48;;;4.60;99.90;;;;;;7373770;19;20829;-67
2024/02/07 00:08:21;;;;;;;14.68;1.55;;;4.50;99.90;;;;;;7368921;19;20018;-67
2024/02/07 00:10:47;;;;;;;6.55;1.98;;;4.50;99.90;;;;;;7373917;19;20018;-67
2024/02/07 00:13:14;;;;;;;4.78;1.50;;;4.50;99.90;;;;;;7371509;19;20021;-67
2024/02/07 00:15:40;;;;;;;10.30;1.80;;;4.50;99.90;;;;;;7372227;19;20024;-65
2024/02/07 00:18:06;;;;;;;8.77;1.58;;;4.50;99.90;;;;;;7367221;19;20018;-65
2024/02/07 00:20:32;;;;;;;11.55;1.73;;;4.60;99.90;;;;;;7375411;19;20542;-65
2024/02/07 00:22:58;;;;;;;8.88;1.33;;;4.60;99.90;;;;;;7370762;19;20057;-67
2024/02/07 00:25:25;;;;;;;8.50;1.40;;;4.60;99.90;;;;;;7371415;19;20030;-67
2024/02/07 00:27:51;;;;;;;8.40;1.63;;;4.60;99.90;;;;;;7368679;19;20025;-69
2024/02/07 00:30:17;;;;;;;10.57;1.58;;;4.60;99.90;;;;;;7371401;19;20034;-67
2024/02/07 00:32:43;;;;;;;11.10;2.80;;;4.60;99.90;;;;;;7372790;19;20014;-64
2024/02/07 00:35:10;;;;;;;8.90;1.60;;;4.60;99.90;;;;;;7374295;19;20045;-65
2024/02/07 00:37:36;;;;;;;11.02;1.77;;;4.60;99.90;;;;;;7367753;19;20019;-65
2024/02/07 00:40:03;;;;;;;10.32;2.42;;;4.70;99.90;;;;;;7374123;19;20025;-64
2024/02/07 00:42:29;;;;;;;11.10;1.88;;;4.60;99.90;;;;;;7378001;19;20057;-67
2024/02/07 00:44:55;;;;;;;12.50;1.98;;;4.60;99.90;;;;;;7377110;19;20026;-67
2024/02/07 00:47:22;;;;;;;8.52;2.10;;;4.60;99.90;;;;;;7376146;19;20355;-67
2024/02/07 00:49:48;;;;;;;11.60;2.42;;;4.50;99.90;;;;;;7376862;19;20026;-67
2024/02/07 00:52:14;;;;;;;9.38;1.35;;;4.60;99.90;;;;;;7377373;19;20026;-68
2024/02/07 00:54:40;;;;;;;7.45;1.60;;;4.60;99.90;;;;;;7377580;19;20026;-67
2024/02/07 00:57:07;;;;;;;9.10;1.48;;;4.60;99.90;;;;;;7374324;19;20097;-67
2024/02/07 00:59:33;;;;;;;10.23;2.15;;;4.60;99.90;;;;;;7377099;19;20015;-67
2024/02/07 01:01:59;;;;;;;9.02;1.88;;;4.60;99.90;;;;;;7376890;19;20021;-67
2024/02/07 01:04:26;;;;;;;9.20;1.77;;;4.60;99.90;;;;;;7374557;19;20037;-67
2024/02/07 01:06:52;;;;;;;11.25;1.73;;;4.50;99.90;;;;;;7372908;19;20018;-68
2024/02/07 01:09:20;;;;;;;10.75;1.98;;;4.50;99.90;;;;;;7375644;19;20074;-67
2024/02/07 01:11:47;;;;;;;6.38;1.60;;;4.50;99.90;;;;;;7374399;19;20097;-65
2024/02/07 01:14:14;;;;;;;18.20;2.33;;;4.50;99.90;;;;;;7377155;19;20173;-65
2024/02/07 01:16:41;;;;;;;10.60;1.45;;;4.50;99.90;;;;;;7375207;19;20018;-65
2024/02/07 01:19:09;;;;;;;9.82;1.70;;;4.50;99.90;;;;;;7376921;19;20078;-65
2024/02/07 01:21:36;;;;;;;7.15;1.50;;;4.50;99.90;;;;;;7378380;19;20539;-66
2024/02/07 01:24:06;;;;;;;10.38;1.80;;;4.50;99.90;;;;;;7377416;19;20093;-65
2024/02/07 01:26:35;;;;;;;15.10;1.90;;;4.50;99.90;;;;;;7374899;19;20182;-65
2024/02/07 01:29:02;;;;;;;9.23;1.75;;;4.50;99.90;;;;;;7374795;19;20022;-66
2024/02/07 01:31:29;;;;;;;9.93;1.50;;;4.50;99.90;;;;;;7370775;19;20951;-65
2024/02/07 01:33:55;;;;;;;12.75;2.78;;;4.50;99.90;;;;;;7378047;19;20506;-65
2024/02/07 01:36:25;;;;;;;11.25;1.60;;;4.50;99.90;;;;;;7374959;19;20089;-66
2024/02/07 01:38:51;;;;;;;12.88;2.08;;;4.50;99.90;;;;;;7373437;19;20407;-65
2024/02/07 01:41:19;;;;;;;11.00;1.63;;;4.50;99.90;;;;;;7376297;19;20025;-65
2024/02/07 01:43:46;;;;;;;10.95;1.35;;;4.50;99.90;;;;;;7374088;19;20025;-66
2024/02/07 01:46:12;;;;;;;15.35;1.70;;;4.50;99.90;;;;;;7373224;19;20022;-65
2024/02/07 01:48:39;;;;;;;8.13;1.50;;;4.50;99.90;;;;;;7368794;19;20708;-64
2024/02/07 01:51:05;;;;;;;11.88;1.77;;;4.50;99.90;;;;;;7376008;19;20508;-64
2024/02/07 01:53:33;;;;;;;10.88;1.60;;;4.50;99.90;;;;;;7377190;19;20026;-64
2024/02/07 01:56:00;;;;;;;11.45;1.60;;;4.50;99.90;;;;;;7373788;19;20045;-65
2024/02/07 01:58:29;;;;;;;8.57;1.75;;;4.50;99.90;;;;;;7370645;19;20053;-66
2024/02/07 02:00:57;;;;;;;8.88;1.80;;;4.50;99.90;;;;;;7373439;19;20142;-67
2024/02/07 02:03:23;;;;;;;11.68;2.35;;;4.50;99.90;;;;;;7371909;19;20045;-69
2024/02/07 02:05:50;;;;;;;8.23;1.77;;;4.50;99.90;;;;;;7372670;19;20029;-67
2024/02/07 02:08:16;;;;;;;10.50;1.70;;;4.50;99.90;;;;;;7371740;19;20022;-67
2024/02/07 02:10:43;;;;;;;10.25;1.60;;;4.50;99.90;;;;;;7371062;19;20078;-65
2024/02/07 02:13:09;;;;;;;8.43;1.83;;;4.50;99.90;;;;;;7371522;19;20018;-68
2024/02/07 02:15:35;;;;;;;7.45;1.40;;;4.50;99.90;;;;;;7372196;19;20022;-65
2024/02/07 02:18:02;;;;;;;14.38;2.35;;;4.50;99.90;;;;;;7372109;19;20565;-68
2024/02/07 02:20:28;;;;;;;8.73;1.50;;;4.50;99.90;;;;;;7374146;19;20014;-65
2024/02/07 02:23:15;;;;;;;9.57;1.63;;;4.40;99.90;;;;;;7368546;19;20059;-65
2024/02/07 02:26:25;;;;;;;9.10;1.60;;;4.50;99.90;;;;;;7375446;19;20031;-65
2024/02/07 02:29:07;;;;;;;13.73;2.05;;;4.50;99.90;;;;;;7372127;19;20018;-64
2024/02/07 02:31:36;;;;;;;9.63;2.10;;;4.50;99.90;;;;;;7369355;19;20113;-64
2024/02/07 02:34:05;;;;;;;12.18;2.17;;;4.50;99.90;;;;;;7371342;19;20033;-65
2024/02/07 02:36:32;;;;;;;10.35;1.80;;;4.50;99.90;;;;;;7370471;19;20020;-64
2024/02/07 02:38:59;;;;;;;7.55;1.85;;;4.50;99.90;;;;;;7371517;19;20026;-65
2024/02/07 02:41:26;;;;;;;11.98;2.38;;;4.40;99.90;;;;;;7369717;19;20654;-64
2024/02/07 02:43:53;;;;;;;10.20;2.08;;;4.50;99.90;;;;;;7372056;19;20082;-65
2024/02/07 02:46:20;;;;;;;9.48;1.70;;;4.50;99.90;;;;;;7372847;19;20074;-69
2024/02/07 02:48:47;;;;;;;7.63;1.30;;;4.50;99.90;;;;;;7365181;19;20085;-69
2024/02/07 02:51:14;;;;;;;11.38;1.60;;;4.50;99.90;;;;;;7375452;19;20026;-68
2024/02/07 02:53:43;;;;;;;13.43;2.50;;;4.50;99.90;;;;;;7373252;19;20018;-68
2024/02/07 02:56:12;;;;;;;7.20;1.50;;;4.50;99.90;;;;;;7369123;19;20018;-69
2024/02/07 02:58:39;;;;;;;11.13;1.67;;;4.50;99.90;;;;;;7367937;19;20565;-68
2024/02/07 03:01:06;;;;;;;12.77;1.77;;;4.50;99.90;;;;;;7372460;19;20500;-68
2024/02/07 03:03:33;;;;;;;8.30;1.65;;;4.50;99.90;;;;;;7374835;19;20096;-64
2024/02/07 03:06:00;;;;;;;11.10;1.80;;;4.50;99.90;;;;;;7373424;19;20094;-65
2024/02/07 03:08:42;;;;;;;5.15;1.45;;;4.50;99.90;;;;;;7370239;19;20039;-68
2024/02/07 03:11:09;;;;;;;;;;;4.50;99.90;;;;;;7374463;19;20015;-68
2024/02/07 03:13:39;;;;;;;13.23;2.58;;;4.50;99.90;;;;;;7371074;19;20797;-68
2024/02/07 03:16:06;;;;;;;8.25;1.67;;;4.50;99.90;;;;;;7371231;19;20484;-68
2024/02/07 03:18:35;;;;;;;9.38;1.70;;;4.60;99.90;;;;;;7365773;19;20022;-68
2024/02/07 03:21:06;;;;;;;9.65;2.17;;;4.60;99.90;;;;;;7371009;19;20021;-68
2024/02/07 03:23:33;;;;;;;14.18;2.35;;;4.60;99.90;;;;;;7372877;19;20105;-64
2024/02/07 03:26:01;;;;;;;8.52;1.88;;;4.60;99.90;;;;;;7365569;19;20022;-64
2024/02/07 03:28:30;;;;;;;10.88;1.85;;;4.60;99.90;;;;;;7369458;19;20055;-68
2024/02/07 03:30:58;;;;;;;16.77;2.40;;;4.60;99.90;;;;;;7370535;19;20497;-68
2024/02/07 03:33:28;;;;;;;15.45;1.75;;;4.70;99.90;;;;;;7373303;19;20116;-64
2024/02/07 03:35:57;;;;;;;18.75;2.22;;;4.70;99.90;;;;;;7375083;19;20018;-64
2024/02/07 03:38:24;;;;;;;11.80;2.10;;;4.70;99.90;;;;;;7368831;19;20015;-64
2024/02/07 03:40:50;;;;;;;13.60;2.65;;;4.70;99.90;;;;;;7367539;19;20019;-65
2024/02/07 03:43:17;;;;;;;15.68;2.72;;;4.80;99.90;;;;;;7369703;19;20022;-65
2024/02/07 03:45:43;;;;;;;16.52;2.47;;;4.80;99.90;;;;;;7371402;19;20022;-64
2024/02/07 03:48:13;;;;;;;10.23;2.60;;;4.80;99.90;;;;;;7367952;19;20014;-65
2024/02/07 03:50:40;;;;;;;10.93;2.53;;;4.80;99.90;;;;;;7369703;19;20038;-65
2024/02/07 03:53:07;;;;;;;13.95;2.22;;;4.80;99.90;;;;;;7369398;19;20011;-65
2024/02/07 03:55:36;;;;;;;12.50;2.10;;;4.80;99.90;;;;;;7371870;19;20018;-64
2024/02/07 03:58:05;;;;;;;12.68;3.55;;;4.80;99.90;;;;;;7366528;19;20585;-69
2024/02/07 04:00:31;;;;;;;14.55;2.20;;;4.80;99.90;;;;;;7371283;19;20019;-69
2024/02/07 04:02:57;;;;;;;13.15;2.65;;;4.80;99.90;;;;;;7371287;19;20011;-68
2024/02/07 04:05:24;;;;;;;19.13;3.80;;;4.90;99.90;;;;;;7370647;19;20023;-68
2024/02/07 04:07:50;;;;;;;17.45;3.10;;;4.90;99.90;;;;;;7379301;19;20143;-68
2024/02/07 04:10:18;;;;;;;15.55;2.63;;;5.00;99.90;;;;;;7377101;19;20047;-64
2024/02/07 05:16:03;;;;;;;23.10;3.28;;;5.00;99.90;;;;;;7376877;19;20022;-64
2024/02/07 05:18:30;;;;;;;18.85;3.60;;;5.00;99.90;;;;;;7369146;19;20023;-64
2024/02/07 05:20:56;;;;;;;23.00;4.50;;;5.00;99.90;;;;;;7376766;19;20023;-65
2024/02/07 05:23:22;;;;;;;22.83;3.78;;;5.00;99.90;;;;;;7374837;19;20018;-65
2024/02/07 05:25:49;;;;;;;22.65;3.28;;;4.90;99.90;;;;;;7377444;19;20122;-63
2024/02/07 05:28:15;;;;;;;21.23;4.15;;;4.90;99.90;;;;;;7375182;19;20034;-63
2024/02/07 05:30:41;;;;;;;17.60;3.22;;;4.90;99.90;;;;;;7374846;19;20056;-63
2024/02/07 05:33:08;;;;;;;23.42;3.78;;;4.90;99.90;;;;;;7376064;19;20049;-63
2024/02/07 05:35:35;;;;;;;18.48;3.92;;;4.90;99.90;;;;;;7377566;19;20027;-64
2024/02/07 05:38:02;;;;;;;26.27;5.07;;;4.80;99.90;;;;;;7373235;19;20018;-63
2024/02/07 05:40:29;;;;;;;21.52;3.97;;;4.80;99.90;;;;;;7375163;19;20026;-66
2024/02/07 05:42:55;;;;;;;21.23;3.53;;;4.80;99.90;;;;;;7373268;19;20014;-65
2024/02/07 05:45:22;;;;;;;21.02;3.63;;;4.80;99.90;;;;;;7377717;19;20018;-65
2024/02/07 05:47:48;;;;;;;21.83;4.88;;;4.70;99.90;;;;;;7377078;19;20328;-65
2024/02/07 05:50:15;;;;;;;21.38;3.20;;;4.70;99.90;;;;;;7380127;19;20029;-65
2024/02/07 05:52:41;;;;;;;25.55;3.83;;;4.70;99.90;;;;;;7374720;19;20017;-65
2024/02/07 05:55:07;;;;;;;18.08;3.13;;;4.70;99.90;;;;;;7379061;19;20394;-69
2024/02/07 05:57:34;;;;;;;17.23;3.53;;;4.60;99.90;;;;;;7380186;19;20019;-69
2024/02/07 06:00:08;;;;;;;19.00;3.53;;;4.60;99.90;;;;;;7378723;19;20074;-70
2024/02/07 06:02:38;;;;;;;20.95;3.38;;;4.60;99.90;;;;;;7379104;19;20073;-69
2024/02/07 06:05:05;;;;;;;20.27;3.42;;;4.60;99.90;;;;;;7376624;19;20038;-69
2024/02/07 06:07:51;;;;;;;24.30;3.90;;;4.50;99.90;;;;;;7377942;19;20026;-70
2024/02/07 06:10:19;;;;;;;20.60;3.58;;;4.50;99.90;;;;;;7375864;19;20041;-67
2024/02/07 06:12:46;;;;;;;23.90;4.47;;;4.40;99.90;;;;;;7378105;19;20067;-69
2024/02/07 06:15:12;;;;;;;19.80;4.03;;;4.40;99.90;;;;;;7374452;19;20018;-70
2024/02/07 06:17:39;;;;;;;20.13;4.55;;;4.40;99.90;;;;;;7371153;19;20065;-66
2024/02/07 06:20:08;;;;;;;19.25;3.70;;;4.40;99.90;;;;;;7371594;19;20019;-69
2024/02/07 06:22:35;;;;;;;21.25;3.38;;;4.50;99.90;;;;;;7369220;19;20018;-66
2024/02/07 06:25:03;;;;;;;17.85;4.07;;;4.40;99.90;;;;;;7370983;19;20019;-63
2024/02/07 06:27:30;;;;;;;18.42;3.88;;;4.40;99.90;;;;;;7369686;19;20619;-66
2024/02/07 06:29:59;;;;;;;20.02;3.80;;;4.40;99.90;;;;;;7372744;19;20054;-67
2024/02/07 06:32:25;;;;;;;20.45;3.60;;;4.40;99.90;;;;;;7373888;19;20014;-67
2024/02/07 06:34:52;;;;;;;16.45;3.35;;;4.40;99.90;;;;;;7377819;19;20676;-67
2024/02/07 06:37:18;;;;;;;20.67;4.07;;;4.40;99.90;;;;;;7377188;19;20049;-67
2024/02/07 06:39:44;;;;;;;23.38;3.60;;;4.40;99.90;;;;;;7377574;19;20029;-66
2024/02/07 06:42:10;;;;;;;23.90;4.03;;;4.40;99.90;;;;;;7374636;19;20019;-66
2024/02/07 06:44:36;;;;;;;18.80;4.68;;;4.30;99.90;;;;;;7371941;19;20098;-66
2024/02/07 06:47:03;;;;;;;27.30;4.28;;;4.30;99.90;;;;;;7373905;19;20022;-66
2024/02/07 06:49:36;;;;;;;23.45;3.42;;;4.30;99.90;;;;;;7375322;19;20739;-67
2024/02/07 06:52:03;;;;;;;19.27;3.38;;;4.30;99.90;;;;;;7375773;19;20019;-67
2024/02/07 06:54:29;;;;;;;18.55;3.53;;;4.30;99.90;;;;;;7372696;19;20102;-64
2024/02/07 06:56:56;;;;;;;21.77;3.83;;;4.20;99.90;;;;;;7375689;19;20126;-66
2024/02/07 06:59:22;;;;;;;20.88;4.15;;;4.20;99.90;;;;;;7373986;19;20028;-66
2024/02/07 07:01:48;;;;;;;19.25;3.80;;;4.20;99.90;;;;;;7372598;19;20022;-71
2024/02/07 07:04:15;;;;;;;18.33;3.35;;;4.20;99.90;;;;;;7375159;19;20090;-71
2024/02/07 07:06:42;;;;;;;15.88;3.30;;;4.20;99.90;;;;;;7374911;19;20036;-71
2024/02/07 07:09:09;;;;;;;18.15;3.15;;;4.20;99.90;;;;;;7372960;19;20074;-71
2024/02/07 07:11:36;;;;;;;17.20;4.05;;;4.20;99.90;;;;;;7375081;19;20900;-70
2024/02/07 07:14:03;;;;;;;20.10;3.58;;;4.20;99.90;;;;;;7373328;19;20074;-65
2024/02/07 07:16:30;;;;;;;20.30;3.95;;;4.20;99.90;;;;;;7374401;19;20078;-67
2024/02/07 07:18:59;;;;;;;24.65;4.20;;;4.10;99.90;;;;;;7370111;19;20479;-66
2024/02/07 07:21:28;;;;;;;14.25;3.58;;;4.10;99.90;;;;;;7376238;19;20034;-70
2024/02/07 07:23:55;;;;;;;20.90;3.33;;;4.10;99.90;;;;;;7372255;19;20902;-74
2024/02/07 07:26:23;;;;;;;15.55;3.00;;;4.10;99.90;;;;;;7376841;19;20756;-70
2024/02/07 07:28:50;;;;;;;14.50;3.60;;;4.10;99.90;;;;;;7374630;19;20621;-65
2024/02/07 07:31:17;;;;;;;19.63;3.10;;;4.00;99.90;;;;;;7374008;19;20022;-66
2024/02/07 07:33:44;;;;;;;16.85;2.95;;;4.00;99.90;;;;;;7375713;19;20026;-66
2024/02/07 07:36:18;;;;;;;18.30;3.65;;;4.10;99.90;;;;;;7373727;19;20022;-66
2024/02/07 07:38:45;;;;;;;18.30;3.35;;;4.10;99.90;;;;;;7370313;19;20086;-66
2024/02/07 07:41:12;;;;;;;14.75;2.97;;;4.00;99.90;;;;;;7369323;19;20074;-66
2024/02/07 07:43:39;;;;;;;16.50;2.58;;;4.10;99.90;;;;;;7371982;19;20523;-66
2024/02/07 07:46:08;;;;;;;20.23;3.35;;;4.10;99.90;;;;;;7370824;19;20023;-66
2024/02/07 07:48:35;;;;;;;15.52;2.88;;;4.10;99.90;;;;;;7376524;19;20018;-63
2024/02/07 07:51:02;;;;;;;22.15;3.65;;;4.10;99.90;;;;;;7370763;19;20015;-67
2024/02/07 07:53:29;;;;;;;14.02;3.38;;;4.10;99.90;;;;;;7371726;19;20039;-65
2024/02/07 07:55:56;;;;;;;11.60;2.80;;;4.10;99.90;;;;;;7371625;19;20022;-71
2024/02/07 07:58:23;;;;;;;16.75;3.42;;;4.10;99.90;;;;;;7370488;19;20782;-66
2024/02/07 08:00:50;;;;;;;14.25;3.05;;;4.10;99.90;;;;;;7370455;19;20026;-66
2024/02/07 08:03:17;;;;;;;24.98;3.75;;;4.20;99.90;;;;;;7373322;19;20019;-66
2024/02/07 08:05:44;;;;;;;19.50;3.60;;;4.20;99.90;;;;;;7374150;19;20088;-66
2024/02/07 08:08:11;;;;;;;17.75;3.65;;;4.20;99.90;;;;;;7372887;19;20019;-66
2024/02/07 08:10:38;;;;;;;24.13;3.38;;;4.20;99.90;;;;;;7372878;19;20022;-66
2024/02/07 08:13:05;;;;;;;24.10;3.15;;;4.20;99.90;;;;;;7370405;19;20018;-66
2024/02/07 08:15:31;;;;;;;11.32;2.85;;;4.20;99.90;;;;;;7372702;19;20037;-66
2024/02/07 08:17:57;;;;;;;16.98;3.20;;;4.30;99.90;;;;;;7372126;19;20007;-66
2024/02/07 08:20:24;;;;;;;20.73;3.70;;;4.30;99.90;;;;;;7374246;19;20717;-66
2024/02/07 08:22:51;;;;;;;17.75;3.15;;;4.40;99.90;;;;;;7372511;19;20359;-66
2024/02/07 08:25:17;;;;;;;17.33;3.78;;;4.40;99.90;;;;;;7372561;19;20026;-71
2024/02/07 08:27:43;;;;;;;20.65;4.25;;;4.50;99.90;;;;;;7372946;19;20805;-71
2024/02/07 08:30:10;;;;;;;20.67;3.67;;;4.50;99.90;;;;;;7369735;19;20025;-72
2024/02/07 08:32:36;;;;;;;23.60;3.45;;;4.60;99.90;;;;;;7372350;19;20026;-72
2024/02/07 08:35:02;;;;;;;18.35;3.13;;;4.60;99.90;;;;;;7374140;19;20014;-72
2024/02/07 08:37:28;;;;;;;18.20;2.97;;;4.60;99.90;;;;;;7369689;19;20768;-71
2024/02/07 08:39:55;;;;;;;24.25;3.55;;;4.70;99.90;;;;;;7373052;19;20033;-67
2024/02/07 08:42:21;;;;;;;13.90;3.58;;;4.70;99.90;;;;;;7374849;19;20015;-65
2024/02/07 08:44:48;;;;;;;12.07;2.63;;;4.80;99.90;;;;;;7373155;19;20058;-67
2024/02/07 08:47:14;;;;;;;14.10;3.53;;;4.80;99.90;;;;;;7371667;19;20090;-66
2024/02/07 08:49:40;;;;;;;19.70;3.38;;;4.80;99.90;;;;;;7374713;19;20648;-66
2024/02/07 08:52:07;;;;;;;13.00;3.22;;;4.80;99.90;;;;;;7371668;19;20110;-66
2024/02/07 08:54:34;;;;;;;14.60;3.92;;;4.90;99.90;;;;;;7379161;19;20034;-67
2024/02/07 08:57:00;;;;;;;19.67;3.40;;;4.90;99.90;;;;;;7381224;19;20026;-64
2024/02/07 08:59:27;;;;;;;17.83;3.35;;;4.90;99.90;;;;;;7381266;19;20015;-67
2024/02/07 09:01:53;;;;;;;18.25;3.63;;;5.00;99.90;;;;;;7378604;19;20018;-66
2024/02/07 09:04:19;;;;;;;14.65;3.10;;;5.00;99.90;;;;;;7381343;19;20026;-71
2024/02/07 09:06:45;;;;;;;14.35;3.25;;;5.00;99.90;;;;;;7376975;19;20018;-71
2024/02/07 09:09:14;;;;;;;20.48;3.90;;;5.10;99.90;;;;;;7378024;19;20019;-70
2024/02/07 09:11:40;;;;;;;15.77;3.45;;;5.10;99.90;;;;;;7376196;19;20600;-71
2024/02/07 09:14:07;;;;;;;17.17;3.00;;;5.10;99.90;;;;;;7378619;19;20039;-71
2024/02/07 09:16:34;;;;;;;16.00;2.90;;;5.20;99.90;;;;;;7376771;19;20044;-70
2024/02/07 09:19:01;;;;;;;15.10;3.20;;;5.20;99.90;;;;;;7376679;19;20478;-71
2024/02/07 09:21:28;;;;;;;18.08;3.78;;;5.20;99.90;;;;;;7379423;19;20035;-71
2024/02/07 09:23:56;;;;;;;12.80;2.83;;;5.20;99.90;;;;;;7377241;19;20015;-71
2024/02/07 09:26:31;;;;;;;20.92;3.90;;;5.20;99.90;;;;;;7372969;19;20090;-70
2024/02/07 09:28:59;;;;;;;18.30;3.47;;;5.20;99.90;;;;;;7376100;19;20039;-70
2024/02/07 09:31:26;;;;;;;17.50;3.63;;;5.30;99.90;;;;;;7376689;19;20466;-70
2024/02/07 09:33:53;;;;;;;12.98;3.00;;;5.30;99.90;;;;;;7377751;19;20601;-70
2024/02/07 09:36:20;;;;;;;14.35;2.75;;;5.40;99.90;;;;;;7378022;19;20019;-71
2024/02/07 09:38:47;;;;;;;15.63;2.95;;;5.50;99.90;;;;;;7377661;19;20101;-64
2024/02/07 09:41:15;;;;;;;17.00;2.90;;;5.60;99.90;;;;;;7375123;19;20488;-67
2024/02/07 09:43:45;;;;;;;11.68;2.67;;;5.60;99.90;;;;;;7378325;19;20910;-67
2024/02/07 09:46:14;;;;;;;14.88;2.72;;;5.60;99.90;;;;;;7377147;19;20407;-66
2024/02/07 09:48:42;;;;;;;11.57;2.72;;;5.70;99.90;;;;;;7377425;19;20022;-66
2024/02/07 09:51:14;;;;;;;14.85;2.60;;;5.80;99.90;;;;;;7377389;19;20007;-66
2024/02/07 09:53:44;;;;;;;14.52;4.68;;;5.90;99.90;;;;;;7374687;19;20108;-65
2024/02/07 09:56:12;;;;;;;14.32;3.00;;;6.10;99.90;;;;;;7378435;19;20018;-69
2024/02/07 09:58:42;;;;;;;15.55;2.83;;;6.20;99.90;;;;;;7374222;19;20019;-68
2024/02/07 10:01:13;;;;;;;12.07;3.08;;;6.60;99.90;;;;;;7379325;19;20530;-68
2024/02/07 10:03:45;;;;;;;12.77;3.00;;;7.10;99.90;;;;;;7373327;19;20051;-69
2024/02/07 10:06:13;;;;;;;14.38;2.40;;;7.30;99.90;;;;;;7376181;19;20411;-69
2024/02/07 10:08:40;;;;;;;21.58;3.00;;;7.50;99.90;;;;;;7378235;19;20063;-72
2024/02/07 10:11:08;;;;;;;18.25;3.22;;;7.70;99.90;;;;;;7376691;19;20014;-75
2024/02/07 10:13:34;;;;;;;17.55;2.90;;;7.90;99.90;;;;;;7376993;19;20018;-75
2024/02/07 10:16:02;;;;;;;13.93;2.65;;;7.50;99.90;;;;;;7377992;19;20019;-75
2024/02/07 10:18:28;;;;;;;11.63;2.70;;;7.60;99.90;;;;;;7376433;19;20019;-75
2024/02/07 10:20:55;;;;;;;14.13;2.50;;;7.60;99.90;;;;;;7374806;19;20853;-74
2024/02/07 10:23:22;;;;;;;14.02;2.40;;;7.60;99.90;;;;;;7375767;19;20045;-74
2024/02/07 10:25:53;;;;;;;14.75;3.15;;;7.50;99.90;;;;;;7372110;19;20023;-75
2024/02/07 10:28:20;;;;;;;11.35;2.80;;;7.40;99.90;;;;;;7378453;19;20024;-75
2024/02/07 10:31:00;;;;;;;12.95;2.75;;;7.30;99.90;;;;;;7373284;19;20089;-75
2024/02/07 10:33:37;;;;;;;14.13;2.55;;;7.40;99.90;;;;;;7376265;19;20786;-74
2024/02/07 10:36:04;;;;;;;12.20;4.30;;;7.40;99.90;;;;;;7375198;19;20014;-74
2024/02/07 10:38:35;;;;;;;15.32;2.92;;;7.60;99.90;;;;;;7375826;19;20010;-74
2024/02/07 10:41:01;;;;;;;13.85;2.88;;;7.80;99.90;;;;;;7376815;19;20038;-73
2024/02/07 10:43:37;;;;;;;15.07;3.05;;;7.70;99.90;;;;;;7380282;19;20021;-73
2024/02/07 10:46:10;;;;;;;12.05;2.58;;;7.80;99.90;;;;;;7380148;19;20029;-75
2024/02/07 10:48:37;;;;;;;15.45;3.25;;;8.00;99.90;;;;;;7380100;19;20025;-76
2024/02/07 10:51:03;;;;;;;9.75;2.50;;;8.20;99.90;;;;;;7377692;19;20688;-74
2024/02/07 10:53:30;;;;;;;12.95;3.33;;;8.40;99.90;;;;;;7380186;19;20021;-73
2024/02/07 10:55:59;;;;;;;11.00;2.58;;;8.70;99.90;;;;;;7382318;19;20058;-75
2024/02/07 10:58:27;;;;;;;16.60;3.20;;;9.20;99.90;;;;;;7381814;19;20783;-74
2024/02/07 11:00:55;;;;;;;13.68;3.00;;;9.50;99.90;;;;;;7378780;19;20370;-73
2024/02/07 11:03:25;;;;;;;9.35;2.35;;;10.30;99.90;;;;;;7379177;19;20018;-75
2024/02/07 11:05:51;;;;;;;11.40;2.55;;;11.20;99.90;;;;;;7380282;19;20010;-74
2024/02/07 11:08:19;;;;;;;13.07;2.78;;;12.00;99.90;;;;;;7378104;19;20014;-70
2024/02/07 11:10:46;;;;;;;11.88;2.60;;;12.30;99.90;;;;;;7377853;19;20049;-71
2024/02/07 11:13:13;;;;;;;15.25;2.83;;;12.80;99.90;;;;;;7379413;19;20116;-71
2024/02/07 11:15:41;;;;;;;10.75;2.58;;;13.50;99.90;;;;;;7377069;19;20031;-69
2024/02/07 11:18:11;;;;;;;15.75;3.33;;;13.70;99.90;;;;;;7375721;19;20022;-68
2024/02/07 11:20:39;;;;;;;10.63;2.70;;;14.00;99.90;;;;;;7375609;19;20047;-68
2024/02/07 11:23:14;;;;;;;12.73;2.83;;;14.10;99.90;;;;;;7374703;19;20073;-69
2024/02/07 11:25:44;;;;;;;8.27;2.65;;;13.90;99.90;;;;;;7377760;19;20100;-68
2024/02/07 11:28:11;;;;;;;7.00;2.13;;;14.10;99.90;;;;;;7375944;19;20089;-73
2024/02/07 11:30:39;;;;;;;7.60;2.15;;;14.50;99.90;;;;;;7376328;19;20574;-67
2024/02/07 11:33:09;;;;;;;12.02;3.17;;;14.70;99.90;;;;;;7376927;19;20035;-72
2024/02/07 11:35:37;;;;;;;8.35;1.85;;;15.20;99.90;;;;;;7376909;19;20509;-72
2024/02/07 11:38:09;;;;;;;13.02;2.78;;;15.10;99.90;;;;;;7376992;19;20019;-72
2024/02/07 11:40:38;;;;;;;15.32;2.65;;;15.60;99.90;;;;;;7375444;19;20859;-69
2024/02/07 11:43:09;;;;;;;9.85;2.55;;;15.70;99.20;;;;;;7371077;19;20047;-69
2024/02/07 11:45:37;;;;;;;;;;;15.90;99.00;;;;;;7372844;19;20018;-71
2024/02/07 11:48:18;;;;;;;11.57;2.50;;;15.60;89.00;;;;;;7376979;19;20424;-71
2024/02/07 11:50:47;;;;;;;11.32;2.80;;;15.30;93.00;;;;;;7375248;19;20517;-67
2024/02/07 11:53:20;;;;;;;10.98;2.63;;;15.20;93.10;;;;;;7376929;19;20038;-72
2024/02/07 11:55:48;;;;;;;14.48;3.83;;;15.50;94.00;;;;;;7367494;19;20029;-72
2024/02/07 11:58:20;;;;;;;7.55;2.38;;;15.40;93.60;;;;;;7377662;19;20025;-71
2024/02/07 12:00:48;;;;;;;14.00;5.80;;;15.60;93.40;;;;;;7376102;19;20073;-73
2024/02/07 12:03:17;;;;;;;10.63;2.20;;;15.80;92.30;;;;;;7375597;19;20022;-70
2024/02/07 12:05:45;;;;;;;11.15;2.55;;;15.30;89.60;;;;;;7372581;19;20617;-75
2024/02/07 12:08:15;;;;;;;10.40;3.35;;;14.70;90.10;;;;;;7376862;19;20014;-73
2024/02/07 12:10:43;;;;;;;9.73;2.97;;;14.10;90.80;;;;;;7374536;19;20022;-73
2024/02/07 12:13:11;;;;;;;11.38;2.65;;;13.30;90.80;;;;;;7376960;19;20498;-74
2024/02/07 12:15:38;;;;;;;10.55;2.70;;;13.60;91.80;;;;;;7370787;19;20022;-70
2024/02/07 12:18:05;;;;;;;13.85;3.85;;;13.10;85.70;;;;;;7375126;19;20011;-69
2024/02/07 12:20:32;;;;;;;10.02;2.88;;;12.70;90.20;;;;;;7372397;19;20022;-69
2024/02/07 12:23:00;;;;;;;11.77;2.60;;;12.40;91.00;;;;;;7372273;19;20035;-66
2024/02/07 12:25:28;;;;;;;11.27;3.25;;;11.90;91.40;;;;;;7367514;19;20018;-66
2024/02/07 12:27:54;;;;;;;10.48;3.13;;;11.20;91.50;;;;;;7377147;19;20026;-68
2024/02/07 12:30:21;;;;;;;17.73;3.10;;;11.10;93.90;;;;;;7379757;19;20021;-68
2024/02/07 12:32:49;;;;;;;12.55;2.95;;;12.10;96.10;;;;;;7377309;19;20051;-71
2024/02/07 12:35:18;;;;;;;12.23;2.40;;;13.10;95.00;;;;;;7380900;19;20097;-66
2024/02/07 12:37:47;;;;;;;9.80;2.20;;;14.00;86.10;;;;;;7378701;19;20022;-72
2024/02/07 12:40:14;;;;;;;8.30;2.28;;;14.20;90.00;;;;;;7377269;19;20026;-65
2024/02/07 12:42:41;;;;;;;9.68;2.42;;;13.80;89.80;;;;;;7379780;19;20393;-66
2024/02/07 12:45:10;;;;;;;13.98;2.80;;;13.40;89.30;;;;;;7377450;19;20018;-66
2024/02/07 12:47:36;;;;;;;13.48;2.17;;;13.00;90.60;;;;;;7378465;19;20030;-66
2024/02/07 12:50:03;;;;;;;10.10;2.60;;;12.50;90.00;;;;;;7379846;19;20019;-66
2024/02/07 12:52:29;;;;;;;15.75;2.40;;;12.40;89.10;;;;;;7378352;19;20019;-72
2024/02/07 12:54:56;;;;;;;12.20;2.35;;;12.90;90.30;;;;;;7378140;19;20021;-66
2024/02/07 12:57:26;;;;;;;11.15;2.17;;;13.10;90.60;;;;;;7379093;19;20023;-66
2024/02/07 12:59:53;;;;;;;9.70;1.98;;;13.50;90.40;;;;;;7376718;19;20042;-66
2024/02/07 13:02:19;;;;;;;11.00;1.88;;;13.60;88.80;;;;;;7380140;19;20389;-66
2024/02/07 13:04:46;;;;;;;12.48;3.05;;;14.00;90.20;;;;;;7377340;19;20019;-66
2024/02/07 13:07:13;;;;;;;11.70;2.47;;;14.10;90.70;;;;;;7376580;19;20090;-72
2024/02/07 13:09:39;;;;;;;14.40;2.20;;;13.80;83.20;;;;;;7379040;19;20386;-72
2024/02/07 13:12:08;;;;;;;9.88;2.83;;;13.80;87.20;;;;;;7377873;19;20629;-72
2024/02/07 13:14:34;;;;;;;11.90;2.20;;;13.40;75.90;;;;;;7378589;19;20661;-72
2024/02/07 13:17:00;;;;;;;8.80;2.03;;;12.80;81.50;;;;;;7378833;19;20027;-72
2024/02/07 13:19:28;;;;;;;8.05;2.22;;;12.70;83.60;;;;;;7377326;19;20021;-74
2024/02/07 13:21:54;;;;;;;7.88;3.63;;;12.70;81.70;;;;;;7380583;19;20078;-72
2024/02/07 13:24:20;;;;;;;10.68;3.75;;;12.70;77.50;;;;;;7375278;19;20015;-72
2024/02/07 13:26:48;;;;;;;10.05;3.10;;;12.50;77.90;;;;;;7379764;19;20010;-72
2024/02/07 13:29:15;;;;;;;7.38;3.13;;;12.10;76.50;;;;;;7376162;19;20026;-73
2024/02/07 13:31:41;;;;;;;8.45;2.10;;;12.30;83.70;;;;;;7376599;19;20849;-66
2024/02/07 13:34:12;;;;;;;8.43;2.05;;;11.90;73.70;;;;;;7374224;19;20015;-66
2024/02/07 13:36:38;;;;;;;9.00;2.30;;;12.20;78.80;;;;;;7376852;19;20026;-66
2024/02/07 13:39:06;;;;;;;8.82;1.92;;;12.40;80.40;;;;;;7369658;19;20015;-66
2024/02/07 13:41:34;;;;;;;10.30;2.33;;;12.40;80.30;;;;;;7376879;19;20082;-72
2024/02/07 13:44:01;;;;;;;12.25;2.58;;;12.20;81.80;;;;;;7371940;19;20015;-67
2024/02/07 13:46:28;;;;;;;12.00;2.28;;;11.90;82.80;;;;;;7375702;19;20884;-67
2024/02/07 13:48:58;;;;;;;8.07;1.98;;;11.50;83.10;;;;;;7376464;19;20105;-66
2024/02/07 13:51:25;;;;;;;13.05;2.30;;;11.30;85.70;;;;;;7375348;19;20015;-66
2024/02/07 13:53:55;;;;;;;12.02;2.85;;;11.00;87.80;;;;;;7375990;19;20014;-66